To NAV CANADA Home Page Login to a new session Search on AWWS site Disclaimer Vers la page française équivalente Tips FAQ What's new on the site To the Forecasts and Observations / NOTAM section To "File a Flight Plan" website Publications and other links Update of the User's profile FIC Telephone Numbers My Weather Data Folder Route Weather Data Regional Weather Data Local Weather Data To the Forecasts and Observations / NOTAM section
Request Generated 11/13/2018 at 18:04:24 UTC . Weather information available at that time is displayed.

METAR/TAF

RESOLUTE BAY/NU    

METAR CYRB 131800Z 18003KT 15SM IC SCT016 OVC020 M28/M31 A3008 RMK SC3SC5 SLP200=
METAR CYRB 131700Z 00000KT 15SM IC BKN020 M28/M32 A3008 RMK SC6 SLP199=
METAR CYRB 131600Z 27004KT 15SM IC FEW030 M29/M32 A3008 RMK SC1 SLP200=

TAF CYRB 131738Z 1318/1418 VRB03KT P6SM FEW020 BKN040 TEMPO 1318/1406
4SM -SN BR SCT008 BKN020
BECMG 1322/1324 18008KT
FM140600 18008KT P6SM FEW020 SCT120
BECMG 1410/1412 30010KT
FM141200 30010KT 3SM -SN BKN020 OVC040
RMK NXT FCST BY 140000Z=
Your time UTC time
Weather data provided by Environment Canada and NAV CANADA